createdAt,value
2023-01-12T00:02:27.737Z,5.67
2023-01-12T00:04:56.035Z,5.74
2023-01-12T00:07:24.328Z,5.77
2023-01-12T00:09:53.001Z,5.78
2023-01-12T00:12:21.273Z,5.83
2023-01-12T00:14:49.530Z,5.86
2023-01-12T00:17:19.702Z,5.79
2023-01-12T00:19:48.064Z,5.70
2023-01-12T00:22:18.388Z,5.61
2023-01-12T00:24:50.003Z,5.52
2023-01-12T00:27:21.323Z,5.50
2023-01-12T00:29:50.500Z,5.51
2023-01-12T00:32:21.723Z,5.46
2023-01-12T00:34:50.386Z,5.48
2023-01-12T00:37:20.539Z,5.47
2023-01-12T00:40:01.523Z,5.48
2023-01-12T00:42:48.249Z,5.42
2023-01-12T00:45:22.618Z,5.46
2023-01-12T00:47:53.368Z,5.56
2023-01-12T00:50:21.920Z,5.65
2023-01-12T00:52:50.186Z,5.70
2023-01-12T00:55:18.496Z,5.70
2023-01-12T00:57:46.851Z,5.80
2023-01-12T01:00:16.662Z,5.76
2023-01-12T01:02:44.992Z,5.77
2023-01-12T01:05:14.763Z,5.77
2023-01-12T01:07:43.163Z,5.86
2023-01-12T01:10:12.971Z,5.78
2023-01-12T01:12:41.552Z,5.81
2023-01-12T01:15:11.260Z,5.79
2023-01-12T01:17:39.556Z,5.79
2023-01-12T01:20:08.736Z,5.83
2023-01-12T01:22:38.356Z,5.93
2023-01-12T01:25:07.892Z,5.94
2023-01-12T01:27:36.234Z,5.95
2023-01-12T01:30:05.205Z,5.84
2023-01-12T01:32:33.500Z,5.91
2023-01-12T01:35:01.834Z,5.97
2023-01-12T01:37:30.907Z,5.93
2023-01-12T01:40:00.566Z,5.88
2023-01-12T01:42:28.998Z,5.87
2023-01-12T01:45:00.526Z,5.97
2023-01-12T01:47:37.397Z,6.03
2023-01-12T01:50:16.287Z,6.05
2023-01-12T01:52:51.295Z,5.95
2023-01-12T01:55:26.067Z,5.96
2023-01-12T01:58:00.205Z,5.96
2023-01-12T02:00:29.516Z,5.94
2023-01-12T02:02:59.129Z,5.94
2023-01-12T02:05:29.100Z,5.93
2023-01-12T02:08:06.748Z,5.89
2023-01-12T02:10:37.958Z,5.93
2023-01-12T02:13:23.798Z,6.06
2023-01-12T02:16:21.572Z,6.21
2023-01-12T02:19:09.707Z,6.12
2023-01-12T02:22:28.258Z,6.11
2023-01-12T02:25:36.535Z,6.25
2023-01-12T02:28:52.526Z,6.21
2023-01-12T02:31:42.985Z,6.20
2023-01-12T02:34:30.347Z,6.25
2023-01-12T02:37:14.566Z,6.26
2023-01-12T02:39:50.969Z,6.36
2023-01-12T02:42:45.040Z,6.31
2023-01-12T02:45:33.591Z,6.30
2023-01-12T02:48:15.197Z,6.19
2023-01-12T02:50:54.207Z,6.21
2023-01-12T02:53:30.494Z,6.16
2023-01-12T02:56:04.533Z,6.16
2023-01-12T02:58:38.557Z,6.20
2023-01-12T03:01:09.631Z,6.11
2023-01-12T03:03:40.806Z,6.17
2023-01-12T03:06:10.156Z,6.25
2023-01-12T03:08:40.895Z,6.28
2023-01-12T03:11:14.819Z,6.22
2023-01-12T03:13:49.937Z,6.00
2023-01-12T03:16:24.164Z,5.72
2023-01-12T03:18:59.994Z,5.52
2023-01-12T03:21:34.422Z,5.39
2023-01-12T03:24:08.037Z,5.46
2023-01-12T03:26:44.192Z,5.64
2023-01-12T03:29:21.139Z,5.64
2023-01-12T03:31:49.795Z,5.72
2023-01-12T03:34:19.583Z,5.72
2023-01-12T03:36:56.764Z,5.69
2023-01-12T03:39:38.104Z,5.63
2023-01-12T03:42:13.938Z,5.62
2023-01-12T03:44:55.142Z,5.53
2023-01-12T03:47:30.008Z,5.51
2023-01-12T03:50:04.916Z,5.51
2023-01-12T03:52:36.318Z,5.45
2023-01-12T03:55:09.615Z,5.42
2023-01-12T03:57:40.823Z,5.29
2023-01-12T04:00:14.286Z,5.33
2023-01-12T04:02:45.289Z,5.31
2023-01-12T04:05:17.595Z,5.25
2023-01-12T04:07:45.893Z,5.15
2023-01-12T04:10:14.136Z,5.07
2023-01-12T04:12:41.756Z,5.04
2023-01-12T04:15:11.157Z,5.11
2023-01-12T04:17:39.470Z,4.96
2023-01-12T04:20:09.589Z,4.78
2023-01-12T04:22:44.012Z,4.77
2023-01-12T04:25:14.080Z,4.65
2023-01-12T04:27:49.597Z,4.59
2023-01-12T04:30:22.861Z,4.50
2023-01-12T04:32:52.475Z,4.47
2023-01-12T04:35:21.124Z,4.59
2023-01-12T04:37:51.778Z,4.72
2023-01-12T04:40:20.955Z,4.82
2023-01-12T04:43:07.280Z,4.86
2023-01-12T04:45:38.966Z,4.80
2023-01-12T04:48:10.415Z,4.81
2023-01-12T04:50:40.390Z,4.72
2023-01-12T04:53:13.236Z,4.69
2023-01-12T04:55:43.840Z,4.80
2023-01-12T04:58:12.324Z,4.86
2023-01-12T05:00:40.667Z,4.88
2023-01-12T05:03:11.995Z,5.06
2023-01-12T05:05:40.465Z,5.23
2023-01-12T05:08:29.147Z,5.30
2023-01-12T05:11:00.294Z,5.55
2023-01-12T05:13:32.254Z,5.59
2023-01-12T05:16:11.990Z,5.51
2023-01-12T05:18:40.349Z,5.56
2023-01-12T05:21:08.862Z,5.60
2023-01-12T05:23:38.582Z,5.63
2023-01-12T05:26:07.803Z,5.64
2023-01-12T05:28:36.181Z,5.63
2023-01-12T05:31:08.042Z,5.47
2023-01-12T05:33:37.467Z,5.42
2023-01-12T05:36:07.191Z,5.48
2023-01-12T05:38:37.040Z,5.53
2023-01-12T05:41:07.902Z,5.52
2023-01-12T05:43:53.010Z,5.55
2023-01-12T05:46:24.988Z,5.56
2023-01-12T05:48:55.032Z,5.63
2023-01-12T05:51:24.971Z,5.66
2023-01-12T05:53:56.098Z,5.60
2023-01-12T05:56:26.885Z,5.57
2023-01-12T05:58:58.470Z,5.65
2023-01-12T06:01:28.380Z,5.64
2023-01-12T06:03:59.852Z,5.66
2023-01-12T06:06:31.725Z,5.71
2023-01-12T06:09:02.801Z,5.65
2023-01-12T06:11:49.072Z,5.72
2023-01-12T06:14:17.618Z,5.69
2023-01-12T06:16:46.289Z,5.73
2023-01-12T06:19:15.109Z,5.79
2023-01-12T06:21:43.483Z,5.78
2023-01-12T06:24:13.488Z,5.78
2023-01-12T06:26:45.120Z,5.82
2023-01-12T06:29:13.879Z,5.96
2023-01-12T06:31:43.940Z,5.93
2023-01-12T06:34:13.227Z,6.02
2023-01-12T06:36:41.747Z,5.97
2023-01-12T06:39:10.123Z,6.12
2023-01-12T06:41:57.969Z,6.11
2023-01-12T06:44:26.262Z,6.16
2023-01-12T06:46:54.552Z,6.21
2023-01-12T06:49:22.799Z,6.22
2023-01-12T06:51:51.664Z,6.28
2023-01-12T06:54:20.009Z,6.24
2023-01-12T06:56:49.837Z,6.22
2023-01-12T06:59:18.095Z,6.27
2023-01-12T07:01:46.569Z,6.29
2023-01-12T07:04:14.899Z,6.32
2023-01-12T07:06:43.352Z,6.30
2023-01-12T07:09:11.711Z,6.31
2023-01-12T07:11:40.044Z,6.31
2023-01-12T07:14:09.681Z,6.36
2023-01-12T07:16:37.998Z,6.30
2023-01-12T07:19:06.345Z,6.24
2023-01-12T07:21:34.758Z,6.24
2023-01-12T07:24:03.259Z,6.19
2023-01-12T07:26:31.860Z,6.13
2023-01-12T07:29:00.290Z,6.12
2023-01-12T07:31:30.124Z,6.10
2023-01-12T07:33:58.483Z,6.07
2023-01-12T07:36:26.884Z,6.12
2023-01-12T07:38:55.305Z,6.09
2023-01-12T07:41:40.987Z,6.12
2023-01-12T07:44:09.801Z,6.06
2023-01-12T07:46:39.496Z,6.06
2023-01-12T07:49:07.804Z,6.08
2023-01-12T07:51:36.244Z,6.05
2023-01-12T07:54:04.548Z,6.02
2023-01-12T07:56:32.857Z,6.06
2023-01-12T07:59:01.145Z,6.02
2023-01-12T08:01:32.554Z,6.03
2023-01-12T08:04:02.300Z,6.13
2023-01-12T08:06:30.926Z,6.15
2023-01-12T08:08:59.195Z,6.21
2023-01-12T08:11:28.026Z,6.29
2023-01-12T08:13:57.905Z,6.30
2023-01-12T08:16:32.388Z,6.29
2023-01-12T08:19:09.125Z,6.31
2023-01-12T08:21:46.107Z,6.32
2023-01-12T08:24:19.608Z,6.37
2023-01-12T08:26:52.441Z,6.36
2023-01-12T08:29:30.053Z,6.37
2023-01-12T08:32:01.581Z,6.39
2023-01-12T08:34:33.000Z,6.34
2023-01-12T08:37:06.747Z,6.39
2023-01-12T08:39:35.922Z,6.38
2023-01-12T08:42:04.695Z,6.40
2023-01-12T08:44:34.687Z,6.38
2023-01-12T08:47:05.076Z,6.38
2023-01-12T08:49:35.351Z,6.40
2023-01-12T08:52:03.689Z,6.43
2023-01-12T08:54:32.212Z,6.50
2023-01-12T08:57:00.491Z,6.51
2023-01-12T08:59:29.134Z,6.54
2023-01-12T09:01:57.603Z,6.52
2023-01-12T09:04:26.151Z,6.55
2023-01-12T09:06:58.120Z,6.59
2023-01-12T09:09:28.593Z,6.65
2023-01-12T09:11:57.260Z,6.63
2023-01-12T09:14:26.699Z,6.68
2023-01-12T09:16:57.236Z,6.68
2023-01-12T09:19:28.031Z,6.69
2023-01-12T09:21:57.788Z,6.72
2023-01-12T09:24:26.177Z,6.72
2023-01-12T09:26:54.755Z,6.75
2023-01-12T09:29:23.077Z,6.77
2023-01-12T09:31:51.688Z,6.80
2023-01-12T09:34:20.043Z,6.82
2023-01-12T09:36:50.325Z,6.90
2023-01-12T09:39:27.278Z,6.93
2023-01-12T09:42:16.058Z,6.93
2023-01-12T09:45:06.147Z,6.90
2023-01-12T09:47:42.294Z,6.89
2023-01-12T09:50:15.673Z,6.86
2023-01-12T09:52:51.654Z,6.88
2023-01-12T09:55:24.224Z,6.93
2023-01-12T09:58:11.496Z,6.88
2023-01-12T10:00:40.137Z,6.90
2023-01-12T10:03:27.083Z,6.93
2023-01-12T10:06:00.517Z,6.93
2023-01-12T10:08:35.943Z,6.94
2023-01-12T10:11:16.990Z,6.93
2023-01-12T10:14:29.545Z,6.94
2023-01-12T10:17:23.971Z,6.92
2023-01-12T10:20:03.933Z,6.91
2023-01-12T10:22:38.255Z,6.95
2023-01-12T10:25:20.653Z,6.99
2023-01-12T10:27:53.168Z,6.94
2023-01-12T10:30:26.121Z,6.88
2023-01-12T10:32:54.871Z,6.88
2023-01-12T10:35:26.307Z,6.86
2023-01-12T10:37:56.964Z,6.86
2023-01-12T10:40:32.046Z,6.81
2023-01-12T10:43:23.879Z,6.80
2023-01-12T10:46:10.471Z,6.83
2023-01-12T10:48:41.223Z,6.86
2023-01-12T10:51:23.249Z,6.95
2023-01-12T10:53:55.922Z,6.95
2023-01-12T10:56:32.281Z,7.04
2023-01-12T10:59:08.102Z,7.03
2023-01-12T11:01:48.904Z,7.02
2023-01-12T11:04:22.147Z,7.09
2023-01-12T11:07:05.489Z,7.12
2023-01-12T11:09:33.902Z,7.13
2023-01-12T11:12:04.929Z,7.16
2023-01-12T11:14:38.151Z,7.14
2023-01-12T11:17:31.570Z,7.17
2023-01-12T11:20:03.204Z,7.22
2023-01-12T11:22:37.689Z,7.24
2023-01-12T11:25:15.861Z,7.22
2023-01-12T11:27:51.834Z,7.37
2023-01-12T11:30:31.017Z,7.36
2023-01-12T11:33:08.989Z,7.46
2023-01-12T11:35:45.836Z,7.49
2023-01-12T11:38:20.199Z,7.48
2023-01-12T11:40:50.371Z,7.54
2023-01-12T11:43:50.462Z,7.66
2023-01-12T11:46:26.916Z,7.71
2023-01-12T11:49:07.471Z,7.77
2023-01-12T11:51:36.121Z,7.81
2023-01-12T11:54:07.025Z,7.84
2023-01-12T11:57:08.743Z,7.79
2023-01-12T11:59:53.434Z,7.83
2023-01-12T12:02:37.145Z,7.83
2023-01-12T12:05:29.931Z,7.91
2023-01-12T12:08:19.438Z,7.97
2023-01-12T12:10:55.620Z,8.01
2023-01-12T12:13:34.100Z,8.03
2023-01-12T12:16:26.172Z,8.03
2023-01-12T12:19:34.968Z,8.10
2023-01-12T12:22:19.604Z,8.14
2023-01-12T12:25:10.999Z,8.12
2023-01-12T12:28:00.007Z,8.16
2023-01-12T12:30:59.910Z,8.12
2023-01-12T12:33:43.402Z,8.11
2023-01-12T12:36:24.341Z,8.15
2023-01-12T12:39:25.956Z,8.16
2023-01-12T12:42:29.097Z,8.22
2023-01-12T12:45:18.533Z,8.28
2023-01-12T12:48:16.300Z,8.31
2023-01-12T12:50:57.439Z,8.38
2023-01-12T12:53:31.350Z,8.35
2023-01-12T12:56:04.474Z,8.43
2023-01-12T12:58:47.420Z,8.47
2023-01-12T13:02:00.090Z,8.56
2023-01-12T13:05:03.711Z,8.55
2023-01-12T13:07:38.902Z,8.55
2023-01-12T13:10:31.840Z,8.59
2023-01-12T13:13:24.875Z,8.61
2023-01-12T13:16:45.057Z,8.58
2023-01-12T13:19:35.797Z,8.52
2023-01-12T13:22:30.923Z,8.49
2023-01-12T13:25:02.007Z,8.46
2023-01-12T13:27:50.194Z,8.45
2023-01-12T13:30:49.829Z,8.61
2023-01-12T13:33:27.243Z,8.57
2023-01-12T13:36:15.497Z,8.57
2023-01-12T13:39:08.391Z,8.59
2023-01-12T13:41:56.273Z,8.61
2023-01-12T13:44:34.747Z,8.61
2023-01-12T13:47:15.549Z,8.68
2023-01-12T13:49:52.656Z,8.76
2023-01-12T13:52:31.994Z,8.69
2023-01-12T13:55:01.226Z,8.71
2023-01-12T13:57:32.485Z,8.73
2023-01-12T14:00:09.032Z,8.71
2023-01-12T14:02:40.829Z,8.75
2023-01-12T14:05:30.535Z,8.81
2023-01-12T14:08:21.846Z,8.91
2023-01-12T14:11:05.641Z,8.88
2023-01-12T14:13:56.895Z,8.88
2023-01-12T14:17:05.013Z,8.91
2023-01-12T14:19:34.237Z,8.90
2023-01-12T14:22:04.922Z,8.88
2023-01-12T14:24:35.185Z,8.89
2023-01-12T14:27:17.965Z,8.85
2023-01-12T14:29:46.366Z,8.80
2023-01-12T14:32:15.581Z,8.84
2023-01-12T14:34:52.342Z,8.87
2023-01-12T14:37:30.585Z,8.97
2023-01-12T14:40:00.633Z,8.90
2023-01-12T14:42:58.558Z,8.98
2023-01-12T14:45:47.177Z,8.78
2023-01-12T14:48:27.151Z,8.79
2023-01-12T14:51:18.143Z,8.78
2023-01-12T14:53:49.080Z,8.68
2023-01-12T14:56:25.098Z,8.60
2023-01-12T14:58:54.446Z,8.57
2023-01-12T15:01:35.184Z,8.50
2023-01-12T15:04:06.555Z,8.43
2023-01-12T15:06:41.676Z,8.43
2023-01-12T15:09:28.065Z,8.30
2023-01-12T15:11:57.856Z,8.36
2023-01-12T15:14:30.182Z,8.37
2023-01-12T15:17:15.221Z,8.43
2023-01-12T15:20:00.932Z,8.46
2023-01-12T15:22:47.653Z,8.38
2023-01-12T15:25:38.117Z,8.35
2023-01-12T15:28:09.087Z,8.40
2023-01-12T15:30:39.854Z,8.32
2023-01-12T15:33:08.291Z,8.24
2023-01-12T15:35:47.057Z,8.23
2023-01-12T15:38:18.120Z,8.18
2023-01-12T15:40:48.680Z,8.09
2023-01-12T15:43:19.097Z,8.03
2023-01-12T15:45:48.696Z,7.98
2023-01-12T15:48:16.958Z,7.98
2023-01-12T15:50:47.331Z,8.07
2023-01-12T15:53:20.249Z,8.21
2023-01-12T15:55:49.592Z,8.28
2023-01-12T15:58:19.709Z,8.43
2023-01-12T16:00:48.339Z,8.38
2023-01-12T16:03:49.092Z,8.30
2023-01-12T16:06:07.378Z,8.34
2023-01-12T16:08:35.675Z,8.33
2023-01-12T16:11:13.295Z,8.36
2023-01-12T16:13:43.024Z,8.41
2023-01-12T16:16:16.955Z,8.44
2023-01-12T16:18:47.686Z,8.52
2023-01-12T16:21:19.477Z,8.53
2023-01-12T16:23:47.843Z,8.51
2023-01-12T16:26:16.145Z,8.53
2023-01-12T16:28:45.884Z,8.49
2023-01-12T16:31:15.670Z,8.45
2023-01-12T16:33:45.216Z,8.42
2023-01-12T16:36:17.741Z,8.46
2023-01-12T16:38:46.830Z,8.51
2023-01-12T16:41:19.949Z,8.51
2023-01-12T16:43:50.173Z,8.50
2023-01-12T16:46:18.775Z,8.58
2023-01-12T16:48:47.183Z,8.56
2023-01-12T16:51:18.010Z,8.60
2023-01-12T16:53:48.355Z,8.59
2023-01-12T16:56:17.999Z,8.65
2023-01-12T16:58:48.387Z,8.69
2023-01-12T17:01:23.638Z,8.63
2023-01-12T17:03:53.787Z,8.58
2023-01-12T17:06:22.818Z,8.62
2023-01-12T17:08:51.206Z,8.65
2023-01-12T17:11:20.988Z,8.62
2023-01-12T17:13:53.211Z,8.56
2023-01-12T17:16:25.298Z,8.58
2023-01-12T17:18:53.778Z,8.58
2023-01-12T17:21:23.097Z,8.58
2023-01-12T17:23:52.400Z,8.42
2023-01-12T17:26:20.933Z,8.39
2023-01-12T17:28:49.616Z,8.44
2023-01-12T17:31:20.622Z,8.33
2023-01-12T17:33:51.944Z,8.21
2023-01-12T17:36:20.248Z,8.16
2023-01-12T17:38:48.543Z,8.02
2023-01-12T17:41:32.274Z,8.06
2023-01-12T17:44:04.469Z,8.14
2023-01-12T17:46:33.899Z,8.19
2023-01-12T17:49:09.206Z,8.23
2023-01-12T17:51:38.961Z,8.03
2023-01-12T17:54:12.440Z,8.00
2023-01-12T17:56:41.038Z,7.97
2023-01-12T17:59:09.645Z,7.97
2023-01-12T18:01:39.642Z,8.02
2023-01-12T18:04:10.072Z,8.10
2023-01-12T18:06:38.336Z,7.99
2023-01-12T18:09:06.903Z,7.93
2023-01-12T18:11:36.082Z,8.00
2023-01-12T18:14:05.382Z,8.08
2023-01-12T18:16:34.422Z,8.01
2023-01-12T18:19:05.920Z,8.06
2023-01-12T18:21:36.017Z,7.95
2023-01-12T18:24:04.530Z,7.97
2023-01-12T18:26:36.084Z,7.96
2023-01-12T18:29:07.007Z,7.93
2023-01-12T18:31:37.615Z,7.88
2023-01-12T18:34:07.932Z,7.90
2023-01-12T18:36:41.909Z,7.93
2023-01-12T18:39:16.039Z,7.97
2023-01-12T18:42:02.398Z,7.95
2023-01-12T18:44:32.233Z,7.97
2023-01-12T18:47:20.351Z,8.08
2023-01-12T18:49:48.968Z,8.08
2023-01-12T18:52:37.703Z,8.07
2023-01-12T18:55:07.562Z,8.16
2023-01-12T18:57:36.745Z,8.14
2023-01-12T19:00:13.728Z,8.18
2023-01-12T19:02:42.327Z,8.29
2023-01-12T19:05:20.506Z,8.37
2023-01-12T19:08:05.441Z,8.41
2023-01-12T19:10:35.816Z,8.45
2023-01-12T19:13:22.282Z,8.49
2023-01-12T19:16:08.407Z,8.58
2023-01-12T19:18:38.311Z,8.64
2023-01-12T19:21:27.163Z,8.69
2023-01-12T19:24:14.418Z,8.70
2023-01-12T19:27:00.456Z,8.72
2023-01-12T19:29:29.029Z,8.73
2023-01-12T19:31:57.294Z,8.69
2023-01-12T19:34:26.370Z,8.72
2023-01-12T19:36:55.423Z,8.75
2023-01-12T19:39:39.305Z,8.74
2023-01-12T19:42:26.400Z,8.75
2023-01-12T19:44:55.604Z,8.66
2023-01-12T19:47:24.477Z,8.75
2023-01-12T19:49:52.762Z,8.74
2023-01-12T19:52:21.369Z,8.79
2023-01-12T19:54:51.198Z,8.76
2023-01-12T19:57:19.756Z,8.74
2023-01-12T19:59:48.422Z,8.75
2023-01-12T20:02:16.706Z,8.79
2023-01-12T20:04:45.434Z,8.80
2023-01-12T20:07:13.725Z,8.79
2023-01-12T20:09:42.211Z,8.80
2023-01-12T20:12:11.928Z,8.81
2023-01-12T20:14:42.828Z,8.81
2023-01-12T20:17:11.891Z,8.81
2023-01-12T20:19:40.454Z,8.83
2023-01-12T20:22:08.693Z,8.87
2023-01-12T20:24:37.113Z,8.85
2023-01-12T20:27:05.427Z,8.88
2023-01-12T20:29:35.294Z,8.91
2023-01-12T20:32:03.560Z,8.84
2023-01-12T20:34:33.123Z,8.88
2023-01-12T20:37:03.179Z,8.87
2023-01-12T20:39:31.607Z,8.87
2023-01-12T20:42:00.033Z,8.85
2023-01-12T20:44:28.388Z,8.84
2023-01-12T20:46:58.311Z,8.85
2023-01-12T20:49:26.691Z,8.86
2023-01-12T20:51:54.993Z,8.88
2023-01-12T20:54:23.522Z,8.92
2023-01-12T20:56:51.786Z,8.90
2023-01-12T20:59:20.084Z,8.86
2023-01-12T21:01:48.499Z,8.89
2023-01-12T21:04:19.454Z,8.85
2023-01-12T21:06:48.184Z,8.83
2023-01-12T21:09:16.470Z,8.87
2023-01-12T21:11:47.129Z,8.83
2023-01-12T21:14:15.347Z,8.83
2023-01-12T21:16:44.026Z,8.81
2023-01-12T21:19:12.284Z,8.79
2023-01-12T21:21:42.195Z,8.82
2023-01-12T21:24:10.773Z,8.85
2023-01-12T21:26:39.054Z,8.83
2023-01-12T21:29:07.660Z,8.81
2023-01-12T21:31:36.246Z,8.86
2023-01-12T21:34:04.635Z,8.84
2023-01-12T21:36:33.109Z,8.84
2023-01-12T21:39:04.279Z,8.83
2023-01-12T21:41:52.567Z,8.84
2023-01-12T21:44:20.848Z,8.97
2023-01-12T21:46:49.970Z,8.87
2023-01-12T21:49:18.447Z,8.85
2023-01-12T21:51:46.785Z,8.90
2023-01-12T21:54:16.404Z,8.89
2023-01-12T21:56:44.801Z,9.01
2023-01-12T21:59:13.293Z,8.93
2023-01-12T22:01:42.078Z,8.97
2023-01-12T22:04:10.782Z,8.98
2023-01-12T22:06:39.247Z,8.98
2023-01-12T22:09:07.595Z,8.93
2023-01-12T22:11:37.339Z,8.97
2023-01-12T22:14:05.625Z,8.97
2023-01-12T22:16:33.949Z,8.95
2023-01-12T22:19:03.819Z,8.98
2023-01-12T22:21:32.177Z,8.98
2023-01-12T22:24:00.510Z,8.96
2023-01-12T22:26:30.525Z,9.01
2023-01-12T22:29:00.214Z,9.00
2023-01-12T22:31:29.071Z,9.04
2023-01-12T22:34:04.071Z,8.98
2023-01-12T22:36:37.038Z,9.00
2023-01-12T22:39:05.605Z,8.96
2023-01-12T22:41:34.042Z,8.98
2023-01-12T22:44:03.694Z,9.01
2023-01-12T22:46:32.019Z,8.97
2023-01-12T22:49:00.499Z,9.00
2023-01-12T22:51:31.329Z,9.00
2023-01-12T22:53:59.820Z,9.03
2023-01-12T22:56:28.388Z,9.04
2023-01-12T22:58:57.774Z,9.08
2023-01-12T23:01:28.212Z,9.03
2023-01-12T23:03:58.668Z,9.09
2023-01-12T23:06:28.180Z,9.06
2023-01-12T23:08:56.864Z,9.11
2023-01-12T23:11:27.876Z,9.08
2023-01-12T23:13:56.517Z,9.07
2023-01-12T23:16:27.137Z,9.10
2023-01-12T23:18:56.368Z,9.11
2023-01-12T23:21:27.554Z,9.15
2023-01-12T23:23:58.802Z,9.13
2023-01-12T23:26:31.289Z,9.08
2023-01-12T23:29:03.358Z,9.10
2023-01-12T23:31:34.889Z,9.11
2023-01-12T23:34:03.547Z,9.10
2023-01-12T23:36:32.898Z,9.08
2023-01-12T23:39:04.222Z,9.13
2023-01-12T23:41:35.777Z,9.06
2023-01-12T23:44:07.668Z,9.04
2023-01-12T23:46:41.041Z,9.00
2023-01-12T23:49:11.050Z,9.00
2023-01-12T23:51:40.700Z,9.00
2023-01-12T23:54:09.339Z,9.03
2023-01-12T23:56:37.821Z,9.02
2023-01-12T23:59:06.290Z,8.96
